sensor_id;sensor_type;location;lat;lon;timestamp;P1;durP1;ratioP1;P2;durP2;ratioP2
8580;SDS011;4328;48.622;9.230;2023-02-28T00:00:13;2.60;;;2.40;;
8580;SDS011;4328;48.622;9.230;2023-02-28T00:02:40;2.47;;;2.20;;
8580;SDS011;4328;48.622;9.230;2023-02-28T00:05:08;2.20;;;2.10;;
8580;SDS011;4328;48.622;9.230;2023-02-28T00:07:35;3.33;;;2.30;;
8580;SDS011;4328;48.622;9.230;2023-02-28T00:10:01;2.10;;;1.90;;
8580;SDS011;4328;48.622;9.230;2023-02-28T00:12:28;2.93;;;2.40;;
8580;SDS011;4328;48.622;9.230;2023-02-28T00:14:56;2.83;;;2.53;;
8580;SDS011;4328;48.622;9.230;2023-02-28T00:17:22;3.70;;;2.67;;
8580;SDS011;4328;48.622;9.230;2023-02-28T00:19:49;4.83;;;2.60;;
8580;SDS011;4328;48.622;9.230;2023-02-28T00:22:15;2.53;;;2.30;;
8580;SDS011;4328;48.622;9.230;2023-02-28T00:24:42;2.10;;;2.00;;
8580;SDS011;4328;48.622;9.230;2023-02-28T00:27:08;3.10;;;2.20;;
8580;SDS011;4328;48.622;9.230;2023-02-28T00:29:35;2.43;;;2.23;;
8580;SDS011;4328;48.622;9.230;2023-02-28T00:32:03;4.23;;;2.47;;
8580;SDS011;4328;48.622;9.230;2023-02-28T00:34:29;2.50;;;2.30;;
8580;SDS011;4328;48.622;9.230;2023-02-28T00:36:56;2.40;;;2.20;;
8580;SDS011;4328;48.622;9.230;2023-02-28T00:39:22;2.57;;;2.33;;
8580;SDS011;4328;48.622;9.230;2023-02-28T00:41:49;2.80;;;2.30;;
8580;SDS011;4328;48.622;9.230;2023-02-28T00:44:15;3.20;;;2.20;;
8580;SDS011;4328;48.622;9.230;2023-02-28T00:46:42;2.80;;;2.30;;
8580;SDS011;4328;48.622;9.230;2023-02-28T00:49:09;2.40;;;2.20;;
8580;SDS011;4328;48.622;9.230;2023-02-28T00:51:36;2.77;;;2.40;;
8580;SDS011;4328;48.622;9.230;2023-02-28T00:54:02;2.50;;;2.23;;
8580;SDS011;4328;48.622;9.230;2023-02-28T00:56:29;2.50;;;2.30;;
8580;SDS011;4328;48.622;9.230;2023-02-28T00:58:55;3.50;;;2.40;;
8580;SDS011;4328;48.622;9.230;2023-02-28T01:01:21;2.27;;;2.17;;
8580;SDS011;4328;48.622;9.230;2023-02-28T01:03:48;2.20;;;2.10;;
8580;SDS011;4328;48.622;9.230;2023-02-28T01:06:16;2.83;;;2.30;;
8580;SDS011;4328;48.622;9.230;2023-02-28T01:08:42;2.67;;;2.30;;
8580;SDS011;4328;48.622;9.230;2023-02-28T01:11:09;2.77;;;2.00;;
8580;SDS011;4328;48.622;9.230;2023-02-28T01:13:35;2.50;;;2.30;;
8580;SDS011;4328;48.622;9.230;2023-02-28T01:16:01;2.20;;;1.97;;
8580;SDS011;4328;48.622;9.230;2023-02-28T01:18:28;3.00;;;2.67;;
8580;SDS011;4328;48.622;9.230;2023-02-28T01:20:55;2.77;;;2.50;;
8580;SDS011;4328;48.622;9.230;2023-02-28T01:23:23;2.30;;;2.10;;
8580;SDS011;4328;48.622;9.230;2023-02-28T01:25:50;3.83;;;2.50;;
8580;SDS011;4328;48.622;9.230;2023-02-28T01:28:16;3.67;;;2.40;;
8580;SDS011;4328;48.622;9.230;2023-02-28T01:30:46;2.33;;;2.17;;
8580;SDS011;4328;48.622;9.230;2023-02-28T01:33:13;2.87;;;2.50;;
8580;SDS011;4328;48.622;9.230;2023-02-28T01:35:39;2.90;;;2.50;;
8580;SDS011;4328;48.622;9.230;2023-02-28T01:38:06;4.47;;;2.33;;
8580;SDS011;4328;48.622;9.230;2023-02-28T01:40:34;2.83;;;2.60;;
8580;SDS011;4328;48.622;9.230;2023-02-28T01:43:00;3.33;;;2.40;;
8580;SDS011;4328;48.622;9.230;2023-02-28T01:45:27;2.60;;;2.40;;
8580;SDS011;4328;48.622;9.230;2023-02-28T01:47:55;2.60;;;2.40;;
8580;SDS011;4328;48.622;9.230;2023-02-28T01:50:23;2.60;;;2.40;;
8580;SDS011;4328;48.622;9.230;2023-02-28T01:52:52;2.93;;;2.60;;
8580;SDS011;4328;48.622;9.230;2023-02-28T01:55:21;2.60;;;2.37;;
8580;SDS011;4328;48.622;9.230;2023-02-28T01:57:50;2.87;;;2.53;;
8580;SDS011;4328;48.622;9.230;2023-02-28T02:00:18;3.40;;;2.57;;
8580;SDS011;4328;48.622;9.230;2023-02-28T02:02:46;3.33;;;2.60;;
8580;SDS011;4328;48.622;9.230;2023-02-28T02:05:14;3.10;;;2.80;;
8580;SDS011;4328;48.622;9.230;2023-02-28T02:07:41;2.83;;;2.50;;
8580;SDS011;4328;48.622;9.230;2023-02-28T02:10:11;3.87;;;3.00;;
8580;SDS011;4328;48.622;9.230;2023-02-28T02:15:35;2.83;;;2.40;;
8580;SDS011;4328;48.622;9.230;2023-02-28T02:18:06;2.97;;;2.67;;
8580;SDS011;4328;48.622;9.230;2023-02-28T02:20:40;3.33;;;2.40;;
8580;SDS011;4328;48.622;9.230;2023-02-28T02:25:53;4.07;;;2.60;;
8580;SDS011;4328;48.622;9.230;2023-02-28T02:31:18;3.33;;;2.70;;
8580;SDS011;4328;48.622;9.230;2023-02-28T02:34:01;4.10;;;2.60;;
8580;SDS011;4328;48.622;9.230;2023-02-28T02:36:30;3.13;;;2.50;;
8580;SDS011;4328;48.622;9.230;2023-02-28T02:39:01;3.77;;;2.90;;
8580;SDS011;4328;48.622;9.230;2023-02-28T02:41:31;3.40;;;3.10;;
8580;SDS011;4328;48.622;9.230;2023-02-28T02:44:02;3.67;;;2.57;;
8580;SDS011;4328;48.622;9.230;2023-02-28T02:46:29;3.27;;;2.97;;
8580;SDS011;4328;48.622;9.230;2023-02-28T02:48:57;3.37;;;3.07;;
8580;SDS011;4328;48.622;9.230;2023-02-28T02:51:26;2.87;;;2.50;;
8580;SDS011;4328;48.622;9.230;2023-02-28T02:53:55;3.30;;;3.00;;
8580;SDS011;4328;48.622;9.230;2023-02-28T02:56:23;4.03;;;2.93;;
8580;SDS011;4328;48.622;9.230;2023-02-28T02:58:50;3.40;;;3.00;;
8580;SDS011;4328;48.622;9.230;2023-02-28T03:01:18;2.83;;;2.63;;
8580;SDS011;4328;48.622;9.230;2023-02-28T03:03:53;3.53;;;2.80;;
8580;SDS011;4328;48.622;9.230;2023-02-28T03:06:20;3.53;;;3.23;;
8580;SDS011;4328;48.622;9.230;2023-02-28T03:08:48;3.10;;;2.90;;
8580;SDS011;4328;48.622;9.230;2023-02-28T03:11:14;3.47;;;3.03;;
8580;SDS011;4328;48.622;9.230;2023-02-28T03:14:04;3.30;;;3.00;;
8580;SDS011;4328;48.622;9.230;2023-02-28T03:16:36;3.03;;;2.80;;
8580;SDS011;4328;48.622;9.230;2023-02-28T03:19:19;3.23;;;2.97;;
8580;SDS011;4328;48.622;9.230;2023-02-28T03:21:50;3.80;;;2.90;;
8580;SDS011;4328;48.622;9.230;2023-02-28T03:24:22;3.20;;;2.90;;
8580;SDS011;4328;48.622;9.230;2023-02-28T03:26:54;3.30;;;2.97;;
8580;SDS011;4328;48.622;9.230;2023-02-28T03:29:22;3.50;;;3.20;;
8580;SDS011;4328;48.622;9.230;2023-02-28T03:31:52;3.93;;;3.07;;
8580;SDS011;4328;48.622;9.230;2023-02-28T03:34:21;3.20;;;2.90;;
8580;SDS011;4328;48.622;9.230;2023-02-28T03:36:50;4.23;;;3.10;;
8580;SDS011;4328;48.622;9.230;2023-02-28T03:39:19;5.00;;;2.80;;
8580;SDS011;4328;48.622;9.230;2023-02-28T03:41:49;3.13;;;2.83;;
8580;SDS011;4328;48.622;9.230;2023-02-28T03:44:18;3.30;;;3.00;;
8580;SDS011;4328;48.622;9.230;2023-02-28T03:46:47;3.67;;;3.03;;
8580;SDS011;4328;48.622;9.230;2023-02-28T03:49:15;4.67;;;3.40;;
8580;SDS011;4328;48.622;9.230;2023-02-28T03:51:43;3.30;;;3.00;;
8580;SDS011;4328;48.622;9.230;2023-02-28T03:54:12;4.73;;;3.00;;
8580;SDS011;4328;48.622;9.230;2023-02-28T03:56:40;2.93;;;2.73;;
8580;SDS011;4328;48.622;9.230;2023-02-28T03:59:12;2.60;;;2.40;;
8580;SDS011;4328;48.622;9.230;2023-02-28T04:01:41;3.90;;;3.53;;
8580;SDS011;4328;48.622;9.230;2023-02-28T04:04:07;3.70;;;3.20;;
8580;SDS011;4328;48.622;9.230;2023-02-28T04:06:35;3.40;;;3.10;;
8580;SDS011;4328;48.622;9.230;2023-02-28T04:09:01;3.30;;;3.00;;
8580;SDS011;4328;48.622;9.230;2023-02-28T04:11:30;3.77;;;3.07;;
8580;SDS011;4328;48.622;9.230;2023-02-28T04:13:58;3.60;;;3.30;;
8580;SDS011;4328;48.622;9.230;2023-02-28T04:16:26;4.20;;;3.27;;
8580;SDS011;4328;48.622;9.230;2023-02-28T04:18:53;3.70;;;3.40;;
8580;SDS011;4328;48.622;9.230;2023-02-28T04:21:19;3.53;;;3.23;;
8580;SDS011;4328;48.622;9.230;2023-02-28T04:23:47;4.43;;;3.47;;
8580;SDS011;4328;48.622;9.230;2023-02-28T04:26:13;5.97;;;3.80;;
8580;SDS011;4328;48.622;9.230;2023-02-28T04:28:39;3.50;;;3.20;;
8580;SDS011;4328;48.622;9.230;2023-02-28T04:31:06;3.30;;;3.10;;
8580;SDS011;4328;48.622;9.230;2023-02-28T04:33:34;3.70;;;2.97;;
8580;SDS011;4328;48.622;9.230;2023-02-28T04:36:00;4.10;;;3.67;;
8580;SDS011;4328;48.622;9.230;2023-02-28T04:38:27;4.00;;;3.60;;
8580;SDS011;4328;48.622;9.230;2023-02-28T04:40:56;3.73;;;3.43;;
8580;SDS011;4328;48.622;9.230;2023-02-28T04:43:22;4.00;;;3.60;;
8580;SDS011;4328;48.622;9.230;2023-02-28T04:45:49;4.63;;;3.37;;
8580;SDS011;4328;48.622;9.230;2023-02-28T04:48:15;4.20;;;3.60;;
8580;SDS011;4328;48.622;9.230;2023-02-28T04:50:43;4.67;;;3.63;;
8580;SDS011;4328;48.622;9.230;2023-02-28T04:53:09;4.40;;;3.53;;
8580;SDS011;4328;48.622;9.230;2023-02-28T04:55:35;4.07;;;3.67;;
8580;SDS011;4328;48.622;9.230;2023-02-28T04:58:05;4.07;;;3.77;;
8580;SDS011;4328;48.622;9.230;2023-02-28T05:00:31;4.20;;;3.70;;
8580;SDS011;4328;48.622;9.230;2023-02-28T05:02:57;4.67;;;3.83;;
8580;SDS011;4328;48.622;9.230;2023-02-28T05:05:24;3.93;;;3.60;;
8580;SDS011;4328;48.622;9.230;2023-02-28T05:07:52;4.73;;;4.27;;
8580;SDS011;4328;48.622;9.230;2023-02-28T05:10:20;4.77;;;3.90;;
8580;SDS011;4328;48.622;9.230;2023-02-28T05:12:47;3.63;;;3.33;;
8580;SDS011;4328;48.622;9.230;2023-02-28T05:15:14;5.27;;;4.10;;
8580;SDS011;4328;48.622;9.230;2023-02-28T05:17:41;4.50;;;4.10;;
8580;SDS011;4328;48.622;9.230;2023-02-28T05:20:08;4.57;;;4.17;;
8580;SDS011;4328;48.622;9.230;2023-02-28T05:22:35;4.50;;;4.10;;
8580;SDS011;4328;48.622;9.230;2023-02-28T05:25:04;4.77;;;4.33;;
8580;SDS011;4328;48.622;9.230;2023-02-28T05:27:30;5.27;;;4.20;;
8580;SDS011;4328;48.622;9.230;2023-02-28T05:29:56;4.63;;;4.20;;
8580;SDS011;4328;48.622;9.230;2023-02-28T05:32:24;6.60;;;4.53;;
8580;SDS011;4328;48.622;9.230;2023-02-28T05:34:50;4.83;;;4.37;;
8580;SDS011;4328;48.622;9.230;2023-02-28T05:37:16;4.80;;;4.20;;
8580;SDS011;4328;48.622;9.230;2023-02-28T05:39:43;4.57;;;3.87;;
8580;SDS011;4328;48.622;9.230;2023-02-28T05:42:11;4.63;;;4.23;;
8580;SDS011;4328;48.622;9.230;2023-02-28T05:44:37;6.23;;;4.27;;
8580;SDS011;4328;48.622;9.230;2023-02-28T05:47:03;5.80;;;4.60;;
8580;SDS011;4328;48.622;9.230;2023-02-28T05:49:30;5.10;;;4.60;;
8580;SDS011;4328;48.622;9.230;2023-02-28T05:51:56;4.67;;;4.13;;
8580;SDS011;4328;48.622;9.230;2023-02-28T05:54:22;5.20;;;4.70;;
8580;SDS011;4328;48.622;9.230;2023-02-28T05:56:49;5.27;;;4.77;;
8580;SDS011;4328;48.622;9.230;2023-02-28T05:59:17;5.13;;;4.63;;
8580;SDS011;4328;48.622;9.230;2023-02-28T06:01:44;5.67;;;4.97;;
8580;SDS011;4328;48.622;9.230;2023-02-28T06:04:13;5.27;;;4.77;;
8580;SDS011;4328;48.622;9.230;2023-02-28T06:06:42;5.70;;;4.73;;
8580;SDS011;4328;48.622;9.230;2023-02-28T06:09:09;4.57;;;4.17;;
8580;SDS011;4328;48.622;9.230;2023-02-28T06:11:36;6.30;;;5.00;;
8580;SDS011;4328;48.622;9.230;2023-02-28T06:14:02;5.27;;;4.70;;
8580;SDS011;4328;48.622;9.230;2023-02-28T06:16:31;5.43;;;4.80;;
8580;SDS011;4328;48.622;9.230;2023-02-28T06:18:58;5.07;;;4.57;;
8580;SDS011;4328;48.622;9.230;2023-02-28T06:21:25;6.13;;;4.70;;
8580;SDS011;4328;48.622;9.230;2023-02-28T06:23:52;5.90;;;5.20;;
8580;SDS011;4328;48.622;9.230;2023-02-28T06:26:18;5.97;;;4.77;;
8580;SDS011;4328;48.622;9.230;2023-02-28T06:28:45;5.33;;;4.83;;
8580;SDS011;4328;48.622;9.230;2023-02-28T06:31:12;5.47;;;4.90;;
8580;SDS011;4328;48.622;9.230;2023-02-28T06:33:41;5.77;;;5.27;;
8580;SDS011;4328;48.622;9.230;2023-02-28T06:36:08;5.93;;;5.23;;
8580;SDS011;4328;48.622;9.230;2023-02-28T06:38:35;6.27;;;5.00;;
8580;SDS011;4328;48.622;9.230;2023-02-28T06:41:01;6.57;;;5.50;;
8580;SDS011;4328;48.622;9.230;2023-02-28T06:43:28;6.00;;;5.20;;
8580;SDS011;4328;48.622;9.230;2023-02-28T06:45:54;5.93;;;5.23;;
8580;SDS011;4328;48.622;9.230;2023-02-28T06:48:21;5.77;;;5.27;;
8580;SDS011;4328;48.622;9.230;2023-02-28T06:50:49;5.90;;;5.00;;
8580;SDS011;4328;48.622;9.230;2023-02-28T06:53:15;5.47;;;4.97;;
8580;SDS011;4328;48.622;9.230;2023-02-28T06:55:41;6.37;;;5.00;;
8580;SDS011;4328;48.622;9.230;2023-02-28T06:58:08;5.83;;;5.27;;
8580;SDS011;4328;48.622;9.230;2023-02-28T07:00:39;6.00;;;5.07;;
8580;SDS011;4328;48.622;9.230;2023-02-28T07:03:08;5.70;;;5.10;;
8580;SDS011;4328;48.622;9.230;2023-02-28T07:05:35;6.13;;;5.37;;
8580;SDS011;4328;48.622;9.230;2023-02-28T07:08:03;5.97;;;5.37;;
8580;SDS011;4328;48.622;9.230;2023-02-28T07:10:30;5.70;;;5.07;;
8580;SDS011;4328;48.622;9.230;2023-02-28T07:12:57;7.27;;;5.27;;
8580;SDS011;4328;48.622;9.230;2023-02-28T07:15:24;6.03;;;5.43;;
8580;SDS011;4328;48.622;9.230;2023-02-28T07:17:50;6.57;;;5.17;;
8580;SDS011;4328;48.622;9.230;2023-02-28T07:20:17;6.73;;;5.03;;
8580;SDS011;4328;48.622;9.230;2023-02-28T07:22:43;6.40;;;5.37;;
8580;SDS011;4328;48.622;9.230;2023-02-28T07:25:11;6.30;;;5.67;;
8580;SDS011;4328;48.622;9.230;2023-02-28T07:27:37;7.50;;;5.73;;
8580;SDS011;4328;48.622;9.230;2023-02-28T07:30:04;7.07;;;5.80;;
8580;SDS011;4328;48.622;9.230;2023-02-28T07:32:30;7.13;;;5.70;;
8580;SDS011;4328;48.622;9.230;2023-02-28T07:34:57;6.97;;;5.10;;
8580;SDS011;4328;48.622;9.230;2023-02-28T07:37:23;7.63;;;5.50;;
8580;SDS011;4328;48.622;9.230;2023-02-28T07:39:50;6.77;;;6.00;;
8580;SDS011;4328;48.622;9.230;2023-02-28T07:42:18;7.93;;;5.57;;
8580;SDS011;4328;48.622;9.230;2023-02-28T07:44:44;6.50;;;5.07;;
8580;SDS011;4328;48.622;9.230;2023-02-28T07:47:10;7.83;;;6.30;;
8580;SDS011;4328;48.622;9.230;2023-02-28T07:49:37;6.33;;;5.73;;
8580;SDS011;4328;48.622;9.230;2023-02-28T07:52:04;6.53;;;5.63;;
8580;SDS011;4328;48.622;9.230;2023-02-28T07:54:30;5.73;;;5.13;;
8580;SDS011;4328;48.622;9.230;2023-02-28T07:56:56;7.37;;;6.00;;
8580;SDS011;4328;48.622;9.230;2023-02-28T07:59:24;6.87;;;6.00;;
8580;SDS011;4328;48.622;9.230;2023-02-28T08:01:51;6.87;;;5.47;;
8580;SDS011;4328;48.622;9.230;2023-02-28T08:04:17;6.23;;;5.50;;
8580;SDS011;4328;48.622;9.230;2023-02-28T08:06:44;7.07;;;6.40;;
8580;SDS011;4328;48.622;9.230;2023-02-28T08:09:10;6.43;;;5.77;;
8580;SDS011;4328;48.622;9.230;2023-02-28T08:11:37;6.90;;;5.80;;
8580;SDS011;4328;48.622;9.230;2023-02-28T08:14:03;6.57;;;5.87;;
8580;SDS011;4328;48.622;9.230;2023-02-28T08:16:31;6.10;;;5.50;;
8580;SDS011;4328;48.622;9.230;2023-02-28T08:18:57;7.23;;;5.97;;
8580;SDS011;4328;48.622;9.230;2023-02-28T08:21:24;6.70;;;6.03;;
8580;SDS011;4328;48.622;9.230;2023-02-28T08:24:10;6.97;;;6.07;;
8580;SDS011;4328;48.622;9.230;2023-02-28T08:29:43;8.40;;;6.33;;
8580;SDS011;4328;48.622;9.230;2023-02-28T08:32:25;7.80;;;6.63;;
8580;SDS011;4328;48.622;9.230;2023-02-28T08:34:56;10.63;;;6.63;;
8580;SDS011;4328;48.622;9.230;2023-02-28T08:37:38;6.63;;;5.93;;
8580;SDS011;4328;48.622;9.230;2023-02-28T08:40:12;6.83;;;6.00;;
8580;SDS011;4328;48.622;9.230;2023-02-28T08:42:54;6.67;;;5.33;;
8580;SDS011;4328;48.622;9.230;2023-02-28T08:45:36;6.40;;;5.67;;
8580;SDS011;4328;48.622;9.230;2023-02-28T08:48:04;7.20;;;6.23;;
8580;SDS011;4328;48.622;9.230;2023-02-28T08:50:31;6.97;;;6.17;;
8580;SDS011;4328;48.622;9.230;2023-02-28T08:52:57;6.47;;;5.43;;
8580;SDS011;4328;48.622;9.230;2023-02-28T08:55:24;6.80;;;6.10;;
8580;SDS011;4328;48.622;9.230;2023-02-28T08:57:51;6.83;;;6.13;;
8580;SDS011;4328;48.622;9.230;2023-02-28T09:00:18;6.73;;;6.03;;
8580;SDS011;4328;48.622;9.230;2023-02-28T09:02:44;7.03;;;6.00;;
8580;SDS011;4328;48.622;9.230;2023-02-28T09:05:12;6.87;;;5.87;;
8580;SDS011;4328;48.622;9.230;2023-02-28T09:07:38;7.17;;;6.47;;
8580;SDS011;4328;48.622;9.230;2023-02-28T09:10:05;8.50;;;6.70;;
8580;SDS011;4328;48.622;9.230;2023-02-28T09:12:32;6.60;;;5.93;;
8580;SDS011;4328;48.622;9.230;2023-02-28T09:14:59;6.60;;;5.97;;
8580;SDS011;4328;48.622;9.230;2023-02-28T09:17:26;8.37;;;6.30;;
8580;SDS011;4328;48.622;9.230;2023-02-28T09:19:52;8.53;;;6.77;;
8580;SDS011;4328;48.622;9.230;2023-02-28T09:22:20;7.50;;;6.70;;
8580;SDS011;4328;48.622;9.230;2023-02-28T09:24:46;6.60;;;6.00;;
8580;SDS011;4328;48.622;9.230;2023-02-28T09:27:13;9.13;;;6.67;;
8580;SDS011;4328;48.622;9.230;2023-02-28T09:29:39;8.17;;;6.57;;
8580;SDS011;4328;48.622;9.230;2023-02-28T09:32:05;7.10;;;6.20;;
8580;SDS011;4328;48.622;9.230;2023-02-28T09:34:32;8.10;;;5.77;;
8580;SDS011;4328;48.622;9.230;2023-02-28T09:36:58;7.07;;;6.37;;
8580;SDS011;4328;48.622;9.230;2023-02-28T09:39:26;8.33;;;6.60;;
8580;SDS011;4328;48.622;9.230;2023-02-28T09:41:54;7.20;;;6.30;;
8580;SDS011;4328;48.622;9.230;2023-02-28T09:44:22;6.40;;;5.73;;
8580;SDS011;4328;48.622;9.230;2023-02-28T09:46:52;7.00;;;6.30;;
8580;SDS011;4328;48.622;9.230;2023-02-28T09:49:22;6.93;;;6.23;;
8580;SDS011;4328;48.622;9.230;2023-02-28T09:51:50;7.63;;;6.40;;
8580;SDS011;4328;48.622;9.230;2023-02-28T09:54:18;6.73;;;6.10;;
8580;SDS011;4328;48.622;9.230;2023-02-28T09:56:47;8.03;;;6.37;;
8580;SDS011;4328;48.622;9.230;2023-02-28T09:59:18;8.23;;;6.40;;
8580;SDS011;4328;48.622;9.230;2023-02-28T10:01:50;10.40;;;6.77;;
8580;SDS011;4328;48.622;9.230;2023-02-28T10:04:23;9.97;;;6.47;;
8580;SDS011;4328;48.622;9.230;2023-02-28T10:06:55;8.30;;;6.43;;
8580;SDS011;4328;48.622;9.230;2023-02-28T10:09:23;11.53;;;7.03;;
8580;SDS011;4328;48.622;9.230;2023-02-28T10:11:52;8.70;;;7.47;;
8580;SDS011;4328;48.622;9.230;2023-02-28T10:14:21;7.33;;;6.57;;
8580;SDS011;4328;48.622;9.230;2023-02-28T10:16:48;9.13;;;6.83;;
8580;SDS011;4328;48.622;9.230;2023-02-28T10:19:18;8.70;;;7.10;;
8580;SDS011;4328;48.622;9.230;2023-02-28T10:21:47;8.73;;;6.60;;
8580;SDS011;4328;48.622;9.230;2023-02-28T10:24:19;9.33;;;7.00;;
8580;SDS011;4328;48.622;9.230;2023-02-28T10:26:46;7.17;;;6.47;;
8580;SDS011;4328;48.622;9.230;2023-02-28T10:29:15;9.37;;;6.53;;
8580;SDS011;4328;48.622;9.230;2023-02-28T10:31:41;8.17;;;6.97;;
8580;SDS011;4328;48.622;9.230;2023-02-28T10:34:07;7.83;;;6.83;;
8580;SDS011;4328;48.622;9.230;2023-02-28T10:36:37;8.90;;;7.10;;
8580;SDS011;4328;48.622;9.230;2023-02-28T10:41:45;8.33;;;6.77;;
8580;SDS011;4328;48.622;9.230;2023-02-28T10:44:14;7.83;;;6.37;;
8580;SDS011;4328;48.622;9.230;2023-02-28T10:46:42;7.37;;;6.23;;
8580;SDS011;4328;48.622;9.230;2023-02-28T10:49:13;7.07;;;6.37;;
8580;SDS011;4328;48.622;9.230;2023-02-28T10:51:40;8.63;;;6.30;;
8580;SDS011;4328;48.622;9.230;2023-02-28T10:54:13;7.23;;;6.53;;
8580;SDS011;4328;48.622;9.230;2023-02-28T10:56:41;7.63;;;6.70;;
8580;SDS011;4328;48.622;9.230;2023-02-28T10:59:22;7.87;;;6.90;;
8580;SDS011;4328;48.622;9.230;2023-02-28T11:01:52;8.10;;;7.30;;
8580;SDS011;4328;48.622;9.230;2023-02-28T11:04:19;7.33;;;6.10;;
8580;SDS011;4328;48.622;9.230;2023-02-28T11:06:46;8.40;;;7.23;;
8580;SDS011;4328;48.622;9.230;2023-02-28T11:09:18;8.40;;;7.00;;
8580;SDS011;4328;48.622;9.230;2023-02-28T11:11:47;8.63;;;7.60;;
8580;SDS011;4328;48.622;9.230;2023-02-28T11:14:17;13.07;;;7.13;;
8580;SDS011;4328;48.622;9.230;2023-02-28T11:16:47;7.37;;;6.67;;
8580;SDS011;4328;48.622;9.230;2023-02-28T11:19:16;6.60;;;6.00;;
8580;SDS011;4328;48.622;9.230;2023-02-28T11:21:47;7.70;;;7.00;;
8580;SDS011;4328;48.622;9.230;2023-02-28T11:24:15;9.20;;;8.37;;
8580;SDS011;4328;48.622;9.230;2023-02-28T11:26:46;10.57;;;8.30;;
8580;SDS011;4328;48.622;9.230;2023-02-28T11:29:18;7.27;;;6.57;;
8580;SDS011;4328;48.622;9.230;2023-02-28T11:31:58;7.73;;;7.03;;
8580;SDS011;4328;48.622;9.230;2023-02-28T11:34:27;7.13;;;6.43;;
8580;SDS011;4328;48.622;9.230;2023-02-28T11:36:54;7.63;;;6.93;;
8580;SDS011;4328;48.622;9.230;2023-02-28T11:39:21;7.10;;;6.47;;
8580;SDS011;4328;48.622;9.230;2023-02-28T11:41:53;7.57;;;6.87;;
8580;SDS011;4328;48.622;9.230;2023-02-28T11:44:26;8.07;;;7.27;;
8580;SDS011;4328;48.622;9.230;2023-02-28T11:46:56;7.10;;;6.50;;
8580;SDS011;4328;48.622;9.230;2023-02-28T11:49:29;7.47;;;6.87;;
8580;SDS011;4328;48.622;9.230;2023-02-28T11:51:57;7.67;;;6.97;;
8580;SDS011;4328;48.622;9.230;2023-02-28T11:54:28;7.67;;;6.90;;
8580;SDS011;4328;48.622;9.230;2023-02-28T11:57:03;7.27;;;6.60;;
8580;SDS011;4328;48.622;9.230;2023-02-28T11:59:38;7.30;;;6.70;;
8580;SDS011;4328;48.622;9.230;2023-02-28T12:05:05;7.30;;;6.60;;
8580;SDS011;4328;48.622;9.230;2023-02-28T12:07:36;7.30;;;6.60;;
8580;SDS011;4328;48.622;9.230;2023-02-28T12:10:06;7.50;;;6.77;;
8580;SDS011;4328;48.622;9.230;2023-02-28T12:12:38;7.93;;;7.23;;
8580;SDS011;4328;48.622;9.230;2023-02-28T12:15:16;7.57;;;6.87;;
8580;SDS011;4328;48.622;9.230;2023-02-28T12:17:50;7.47;;;6.77;;
8580;SDS011;4328;48.622;9.230;2023-02-28T12:22:48;7.03;;;6.53;;
8580;SDS011;4328;48.622;9.230;2023-02-28T12:25:32;7.37;;;6.77;;
8580;SDS011;4328;48.622;9.230;2023-02-28T12:28:01;7.00;;;6.40;;
8580;SDS011;4328;48.622;9.230;2023-02-28T12:30:28;6.90;;;6.30;;
8580;SDS011;4328;48.622;9.230;2023-02-28T12:32:56;7.83;;;7.23;;
8580;SDS011;4328;48.622;9.230;2023-02-28T12:35:24;7.83;;;7.10;;
8580;SDS011;4328;48.622;9.230;2023-02-28T12:37:54;7.50;;;6.80;;
8580;SDS011;4328;48.622;9.230;2023-02-28T12:40:23;8.50;;;7.67;;
8580;SDS011;4328;48.622;9.230;2023-02-28T12:42:51;7.80;;;7.20;;
8580;SDS011;4328;48.622;9.230;2023-02-28T12:45:19;7.43;;;6.73;;
8580;SDS011;4328;48.622;9.230;2023-02-28T12:47:48;7.60;;;7.00;;
8580;SDS011;4328;48.622;9.230;2023-02-28T12:50:16;7.77;;;7.17;;
8580;SDS011;4328;48.622;9.230;2023-02-28T12:52:46;7.00;;;6.40;;
8580;SDS011;4328;48.622;9.230;2023-02-28T12:55:19;8.33;;;7.63;;
8580;SDS011;4328;48.622;9.230;2023-02-28T12:57:50;8.63;;;7.93;;
8580;SDS011;4328;48.622;9.230;2023-02-28T13:00:20;7.90;;;6.93;;
8580;SDS011;4328;48.622;9.230;2023-02-28T13:02:58;8.73;;;7.97;;
8580;SDS011;4328;48.622;9.230;2023-02-28T13:08:35;8.03;;;7.30;;
8580;SDS011;4328;48.622;9.230;2023-02-28T13:11:07;7.30;;;6.70;;
8580;SDS011;4328;48.622;9.230;2023-02-28T13:13:33;7.73;;;7.10;;
8580;SDS011;4328;48.622;9.230;2023-02-28T13:16:02;7.80;;;7.20;;
8580;SDS011;4328;48.622;9.230;2023-02-28T13:18:30;7.77;;;7.17;;
8580;SDS011;4328;48.622;9.230;2023-02-28T13:20:57;7.50;;;6.90;;
8580;SDS011;4328;48.622;9.230;2023-02-28T13:26:13;7.63;;;7.03;;
8580;SDS011;4328;48.622;9.230;2023-02-28T13:31:27;7.80;;;7.07;;
8580;SDS011;4328;48.622;9.230;2023-02-28T13:34:12;8.17;;;7.47;;
8580;SDS011;4328;48.622;9.230;2023-02-28T13:36:39;7.30;;;6.70;;
8580;SDS011;4328;48.622;9.230;2023-02-28T13:41:48;8.13;;;7.43;;
8580;SDS011;4328;48.622;9.230;2023-02-28T13:44:16;6.70;;;6.20;;
8580;SDS011;4328;48.622;9.230;2023-02-28T13:49:33;7.87;;;7.17;;
8580;SDS011;4328;48.622;9.230;2023-02-28T13:52:02;7.90;;;7.20;;
8580;SDS011;4328;48.622;9.230;2023-02-28T13:54:35;7.30;;;6.70;;
8580;SDS011;4328;48.622;9.230;2023-02-28T13:57:11;7.80;;;7.10;;
8580;SDS011;4328;48.622;9.230;2023-02-28T13:59:40;7.40;;;6.70;;
8580;SDS011;4328;48.622;9.230;2023-02-28T14:02:20;7.83;;;7.00;;
8580;SDS011;4328;48.622;9.230;2023-02-28T14:04:59;7.53;;;6.93;;
8580;SDS011;4328;48.622;9.230;2023-02-28T14:07:27;7.60;;;7.00;;
8580;SDS011;4328;48.622;9.230;2023-02-28T14:09:58;7.70;;;7.10;;
8580;SDS011;4328;48.622;9.230;2023-02-28T14:15:27;8.07;;;7.30;;
8580;SDS011;4328;48.622;9.230;2023-02-28T14:17:55;8.00;;;7.10;;
8580;SDS011;4328;48.622;9.230;2023-02-28T14:20:24;7.33;;;6.73;;
8580;SDS011;4328;48.622;9.230;2023-02-28T14:22:53;7.63;;;7.03;;
8580;SDS011;4328;48.622;9.230;2023-02-28T14:25:23;7.27;;;6.67;;
8580;SDS011;4328;48.622;9.230;2023-02-28T14:27:58;7.80;;;7.10;;
8580;SDS011;4328;48.622;9.230;2023-02-28T14:30:36;7.50;;;6.83;;
8580;SDS011;4328;48.622;9.230;2023-02-28T14:33:11;7.67;;;7.07;;
8580;SDS011;4328;48.622;9.230;2023-02-28T14:35:43;7.37;;;6.77;;
8580;SDS011;4328;48.622;9.230;2023-02-28T14:38:13;7.00;;;6.40;;
8580;SDS011;4328;48.622;9.230;2023-02-28T14:40:41;7.40;;;6.70;;
8580;SDS011;4328;48.622;9.230;2023-02-28T14:43:16;8.00;;;7.23;;
8580;SDS011;4328;48.622;9.230;2023-02-28T14:45:48;7.00;;;6.40;;
8580;SDS011;4328;48.622;9.230;2023-02-28T14:48:15;7.80;;;7.10;;
8580;SDS011;4328;48.622;9.230;2023-02-28T14:50:42;7.43;;;6.73;;
8580;SDS011;4328;48.622;9.230;2023-02-28T14:53:15;7.80;;;7.00;;
8580;SDS011;4328;48.622;9.230;2023-02-28T14:55:44;7.87;;;7.17;;
8580;SDS011;4328;48.622;9.230;2023-02-28T14:58:18;8.03;;;7.23;;
8580;SDS011;4328;48.622;9.230;2023-02-28T15:00:49;7.20;;;6.53;;
8580;SDS011;4328;48.622;9.230;2023-02-28T15:03:18;7.27;;;6.57;;
8580;SDS011;4328;48.622;9.230;2023-02-28T15:05:51;7.43;;;6.80;;
8580;SDS011;4328;48.622;9.230;2023-02-28T15:08:20;7.77;;;7.03;;
8580;SDS011;4328;48.622;9.230;2023-02-28T15:10:50;7.80;;;7.13;;
8580;SDS011;4328;48.622;9.230;2023-02-28T15:13:18;7.40;;;6.70;;
8580;SDS011;4328;48.622;9.230;2023-02-28T15:15:45;8.30;;;7.47;;
8580;SDS011;4328;48.622;9.230;2023-02-28T15:18:16;7.80;;;7.10;;
8580;SDS011;4328;48.622;9.230;2023-02-28T15:20:46;7.80;;;6.57;;
8580;SDS011;4328;48.622;9.230;2023-02-28T15:23:13;7.40;;;6.70;;
8580;SDS011;4328;48.622;9.230;2023-02-28T15:25:41;7.90;;;7.10;;
8580;SDS011;4328;48.622;9.230;2023-02-28T15:28:10;7.67;;;6.23;;
8580;SDS011;4328;48.622;9.230;2023-02-28T15:30:38;7.57;;;6.87;;
8580;SDS011;4328;48.622;9.230;2023-02-28T15:33:05;8.27;;;6.97;;
8580;SDS011;4328;48.622;9.230;2023-02-28T15:35:35;7.57;;;6.70;;
8580;SDS011;4328;48.622;9.230;2023-02-28T15:38:02;7.30;;;6.63;;
8580;SDS011;4328;48.622;9.230;2023-02-28T15:40:31;7.43;;;6.73;;
8580;SDS011;4328;48.622;9.230;2023-02-28T15:42:58;7.77;;;6.63;;
8580;SDS011;4328;48.622;9.230;2023-02-28T15:45:28;7.93;;;6.93;;
8580;SDS011;4328;48.622;9.230;2023-02-28T15:48:00;7.20;;;6.50;;
8580;SDS011;4328;48.622;9.230;2023-02-28T15:50:27;8.63;;;6.37;;
8580;SDS011;4328;48.622;9.230;2023-02-28T15:52:55;8.27;;;7.07;;
8580;SDS011;4328;48.622;9.230;2023-02-28T15:55:22;8.00;;;7.20;;
8580;SDS011;4328;48.622;9.230;2023-02-28T15:57:49;8.90;;;6.77;;
8580;SDS011;4328;48.622;9.230;2023-02-28T16:00:19;7.47;;;6.77;;